createdAt,value
2023-01-03T00:01:30.302Z,8.25
2023-01-03T00:03:58.464Z,9.00
2023-01-03T00:06:32.038Z,8.65
2023-01-03T00:09:01.427Z,8.27
2023-01-03T00:11:49.456Z,7.72
2023-01-03T00:14:19.720Z,7.90
2023-01-03T00:16:46.676Z,9.73
2023-01-03T00:19:14.920Z,7.55
2023-01-03T00:21:43.067Z,7.60
2023-01-03T00:24:10.751Z,8.30
2023-01-03T00:26:38.518Z,7.85
2023-01-03T00:29:05.394Z,8.45
2023-01-03T00:31:32.368Z,7.18
2023-01-03T00:33:59.424Z,7.47
2023-01-03T00:36:26.508Z,7.97
2023-01-03T00:38:53.506Z,8.00
2023-01-03T00:41:20.899Z,7.63
2023-01-03T00:43:49.311Z,7.28
2023-01-03T00:46:18.739Z,7.35
2023-01-03T00:48:45.896Z,7.97
2023-01-03T00:51:18.640Z,8.43
2023-01-03T00:53:47.611Z,7.95
2023-01-03T00:56:16.726Z,8.27
2023-01-03T00:58:43.683Z,8.02
2023-01-03T01:01:16.258Z,7.22
2023-01-03T01:03:52.294Z,8.00
2023-01-03T01:06:26.286Z,7.63
2023-01-03T01:08:55.750Z,7.95
2023-01-03T01:11:23.249Z,8.40
2023-01-03T01:13:51.315Z,8.75
2023-01-03T01:16:21.475Z,8.23
2023-01-03T01:18:50.123Z,8.13
2023-01-03T01:21:26.016Z,7.70
2023-01-03T01:23:53.408Z,8.15
2023-01-03T01:26:22.435Z,7.63
2023-01-03T01:28:51.089Z,5.33
2023-01-03T01:31:20.933Z,8.60
2023-01-03T01:36:16.402Z,7.47
2023-01-03T01:38:44.253Z,7.70
2023-01-03T01:41:15.993Z,6.93
2023-01-03T01:44:17.454Z,6.97
2023-01-03T01:46:44.771Z,7.35
2023-01-03T01:49:21.941Z,7.07
2023-01-03T01:51:49.635Z,6.57
2023-01-03T01:54:16.781Z,7.68
2023-01-03T01:56:47.682Z,7.68
2023-01-03T01:59:15.202Z,7.93
2023-01-03T02:01:46.044Z,7.07
2023-01-03T02:04:26.684Z,8.10
2023-01-03T02:06:54.495Z,5.93
2023-01-03T02:09:21.177Z,6.90
2023-01-03T02:12:46.733Z,6.88
2023-01-03T02:15:22.096Z,7.70
2023-01-03T02:18:10.143Z,8.75
2023-01-03T02:20:57.263Z,7.60
2023-01-03T02:23:30.527Z,8.18
2023-01-03T02:26:23.734Z,7.30
2023-01-03T02:28:50.618Z,7.15
2023-01-03T02:31:40.432Z,7.68
2023-01-03T02:36:57.922Z,6.72
2023-01-03T02:39:34.110Z,6.30
2023-01-03T02:42:29.520Z,6.97
2023-01-03T02:45:15.737Z,7.47
2023-01-03T02:48:01.516Z,6.60
2023-01-03T02:50:32.928Z,6.88
2023-01-03T02:53:05.559Z,6.53
2023-01-03T02:55:33.987Z,6.40
2023-01-03T02:58:16.638Z,6.55
2023-01-03T03:00:48.679Z,7.05
2023-01-03T03:03:19.679Z,6.55
2023-01-03T03:06:18.937Z,6.97
2023-01-03T03:08:46.705Z,5.22
2023-01-03T03:11:32.426Z,6.47
2023-01-03T03:14:27.485Z,6.00
2023-01-03T03:17:00.247Z,5.90
2023-01-03T03:19:55.625Z,5.38
2023-01-03T03:23:08.374Z,5.35
2023-01-03T03:25:49.722Z,5.75
2023-01-03T03:28:35.005Z,6.53
2023-01-03T03:31:07.883Z,5.65
2023-01-03T03:33:51.715Z,5.57
2023-01-03T03:36:45.094Z,6.40
2023-01-03T03:39:32.708Z,5.35
2023-01-03T03:42:27.208Z,7.13
2023-01-03T03:45:01.845Z,6.38
2023-01-03T03:47:44.339Z,6.97
2023-01-03T03:50:40.925Z,7.70
2023-01-03T03:53:10.638Z,8.70
2023-01-03T03:55:43.612Z,8.25
2023-01-03T03:58:16.845Z,8.40
2023-01-03T04:00:45.555Z,8.57
2023-01-03T04:03:13.975Z,8.27
2023-01-03T04:06:02.509Z,9.40
2023-01-03T04:08:29.276Z,10.38
2023-01-03T04:11:05.580Z,10.45
2023-01-03T04:13:37.934Z,9.38
2023-01-03T04:16:06.760Z,10.40
2023-01-03T04:18:34.014Z,9.48
2023-01-03T04:21:01.078Z,11.35
2023-01-03T04:23:27.944Z,9.93
2023-01-03T04:25:55.015Z,10.15
2023-01-03T04:28:22.043Z,12.05
2023-01-03T04:30:48.795Z,12.50
2023-01-03T04:33:15.924Z,11.18
2023-01-03T04:35:42.798Z,11.85
2023-01-03T04:38:10.243Z,12.63
2023-01-03T04:40:40.576Z,13.00
2023-01-03T04:43:26.166Z,13.45
2023-01-03T04:45:53.066Z,12.80
2023-01-03T04:48:20.220Z,14.75
2023-01-03T04:50:58.367Z,14.57
2023-01-03T04:53:27.286Z,14.15
2023-01-03T04:55:56.996Z,15.10
2023-01-03T04:58:24.307Z,14.27
2023-01-03T05:00:51.443Z,15.48
2023-01-03T05:03:23.985Z,14.45
2023-01-03T05:06:04.928Z,15.93
2023-01-03T05:08:31.954Z,14.95
2023-01-03T05:10:58.794Z,16.42
2023-01-03T05:13:26.077Z,16.38
2023-01-03T05:15:52.902Z,15.18
2023-01-03T05:18:19.967Z,14.45
2023-01-03T05:21:06.233Z,14.07
2023-01-03T05:23:52.790Z,13.15
2023-01-03T05:26:21.544Z,14.00
2023-01-03T05:28:52.322Z,14.25
2023-01-03T05:31:19.444Z,14.15
2023-01-03T05:33:46.713Z,14.13
2023-01-03T05:36:13.505Z,12.80
2023-01-03T05:38:40.538Z,12.77
2023-01-03T05:41:07.641Z,12.80
2023-01-03T05:43:34.710Z,14.50
2023-01-03T05:46:01.809Z,12.38
2023-01-03T05:48:28.750Z,12.30
2023-01-03T05:50:57.979Z,12.13
2023-01-03T05:53:25.519Z,12.40
2023-01-03T05:55:52.495Z,12.23
2023-01-03T05:58:19.402Z,12.10
2023-01-03T06:00:46.105Z,12.43
2023-01-03T06:03:13.046Z,11.65
2023-01-03T06:05:44.611Z,12.20
2023-01-03T06:08:14.929Z,10.05
2023-01-03T06:10:41.968Z,10.65
2023-01-03T06:13:09.002Z,12.02
2023-01-03T06:15:36.061Z,11.48
2023-01-03T06:18:03.176Z,10.30
2023-01-03T06:20:30.462Z,12.65
2023-01-03T06:22:57.899Z,11.27
2023-01-03T06:25:24.913Z,10.82
2023-01-03T06:27:51.767Z,11.15
2023-01-03T06:30:18.658Z,10.60
2023-01-03T06:32:45.465Z,11.13
2023-01-03T06:35:12.563Z,9.50
2023-01-03T06:37:39.867Z,10.80
2023-01-03T06:40:07.424Z,10.05
2023-01-03T06:42:43.287Z,10.25
2023-01-03T06:45:30.770Z,9.90
2023-01-03T06:48:16.892Z,10.05
2023-01-03T06:51:03.228Z,10.50
2023-01-03T06:53:36.970Z,9.73
2023-01-03T06:56:04.864Z,10.57
2023-01-03T06:58:31.784Z,11.43
2023-01-03T07:01:02.727Z,10.63
2023-01-03T07:03:33.470Z,10.32
2023-01-03T07:06:00.327Z,10.05
2023-01-03T07:08:27.306Z,10.13
2023-01-03T07:10:55.390Z,10.68
2023-01-03T07:13:41.222Z,10.52
2023-01-03T07:16:16.917Z,11.43
2023-01-03T07:18:46.953Z,10.15
2023-01-03T07:21:20.188Z,11.50
2023-01-03T07:23:46.941Z,9.60
2023-01-03T07:26:13.935Z,11.65
2023-01-03T07:28:40.972Z,10.50
2023-01-03T07:31:07.813Z,9.10
2023-01-03T07:33:35.109Z,10.00
2023-01-03T07:36:11.215Z,11.23
2023-01-03T07:38:40.021Z,12.15
2023-01-03T07:41:10.716Z,10.55
2023-01-03T07:43:39.940Z,9.95
2023-01-03T07:46:20.523Z,11.52
2023-01-03T07:48:52.649Z,11.80
2023-01-03T07:51:21.706Z,10.35
2023-01-03T07:53:53.311Z,11.20
2023-01-03T07:56:22.328Z,10.65
2023-01-03T07:58:51.913Z,10.60
2023-01-03T08:01:21.624Z,11.75
2023-01-03T08:03:50.429Z,11.63
2023-01-03T08:06:20.430Z,11.27
2023-01-03T08:09:08.101Z,12.13
2023-01-03T08:11:53.654Z,12.13
2023-01-03T08:14:25.621Z,13.73
2023-01-03T08:16:53.506Z,12.05
2023-01-03T08:19:20.236Z,11.65
2023-01-03T08:21:47.368Z,11.02
2023-01-03T08:24:14.366Z,13.38
2023-01-03T08:26:42.228Z,12.13
2023-01-03T08:29:09.349Z,12.82
2023-01-03T08:31:41.822Z,13.23
2023-01-03T08:34:16.831Z,10.35
2023-01-03T08:36:50.862Z,9.25
2023-01-03T08:39:21.907Z,8.88
2023-01-03T08:42:01.745Z,8.98
2023-01-03T08:46:59.988Z,9.07
2023-01-03T08:49:27.203Z,8.38
2023-01-03T08:51:54.107Z,7.95
2023-01-03T08:54:21.124Z,7.78
2023-01-03T08:56:48.221Z,9.25
2023-01-03T08:59:15.255Z,9.23
2023-01-03T09:01:42.522Z,9.18
2023-01-03T09:04:09.503Z,7.55
2023-01-03T09:06:36.439Z,9.48
2023-01-03T09:09:07.873Z,7.75
2023-01-03T09:11:35.014Z,7.90
2023-01-03T09:14:02.076Z,8.40
2023-01-03T09:16:29.155Z,7.60
2023-01-03T09:18:56.300Z,7.43
2023-01-03T09:21:23.281Z,7.10
2023-01-03T09:23:50.221Z,6.07
2023-01-03T09:26:17.579Z,6.47
2023-01-03T09:28:44.330Z,6.40
2023-01-03T09:31:11.035Z,7.32
2023-01-03T09:33:38.050Z,6.05
2023-01-03T09:36:05.365Z,5.82
2023-01-03T09:38:32.087Z,5.93
2023-01-03T09:41:09.704Z,6.18
2023-01-03T09:43:42.503Z,5.20
2023-01-03T09:46:22.038Z,5.93
2023-01-03T09:48:50.178Z,6.43
2023-01-03T09:51:57.746Z,7.47
2023-01-03T09:54:52.800Z,6.00
2023-01-03T09:57:51.013Z,6.97
2023-01-03T10:00:43.118Z,5.65
2023-01-03T10:03:50.402Z,5.55
2023-01-03T10:06:59.716Z,5.97
2023-01-03T10:09:46.647Z,4.65
2023-01-03T10:12:26.637Z,4.68
2023-01-03T10:14:59.695Z,11.10
2023-01-03T10:17:44.714Z,9.95
2023-01-03T10:20:42.077Z,10.75
2023-01-03T10:23:10.219Z,17.85
2023-01-03T10:25:39.974Z,30.60
2023-01-03T10:28:36.895Z,7.30
2023-01-03T10:31:22.490Z,8.27
2023-01-03T10:33:50.423Z,5.18
2023-01-03T10:36:19.743Z,3.80
2023-01-03T10:38:52.808Z,4.50
2023-01-03T10:41:44.489Z,3.60
2023-01-03T10:44:26.420Z,5.78
2023-01-03T10:46:55.791Z,5.32
2023-01-03T10:49:29.036Z,6.63
2023-01-03T10:52:20.086Z,5.13
2023-01-03T10:54:52.045Z,3.22
2023-01-03T10:57:38.277Z,6.85
2023-01-03T11:00:29.969Z,12.00
2023-01-03T11:03:16.242Z,8.27
2023-01-03T11:05:49.451Z,5.57
2023-01-03T11:08:20.817Z,6.53
2023-01-03T11:10:54.328Z,11.05
2023-01-03T11:13:37.660Z,9.43
2023-01-03T11:16:14.259Z,11.43
2023-01-03T11:18:42.797Z,15.65
2023-01-03T11:21:46.984Z,4.43
2023-01-03T11:24:49.420Z,5.43
2023-01-03T11:27:28.597Z,3.38
2023-01-03T11:30:25.354Z,3.05
2023-01-03T11:33:12.078Z,5.30
2023-01-03T11:35:44.988Z,6.20
2023-01-03T11:38:33.385Z,5.97
2023-01-03T11:41:25.421Z,3.10
2023-01-03T11:44:10.929Z,13.65
2023-01-03T11:47:05.838Z,9.68
2023-01-03T11:49:44.696Z,6.85
2023-01-03T11:52:42.170Z,4.70
2023-01-03T11:55:22.632Z,5.43
2023-01-03T11:57:58.657Z,2.85
2023-01-03T12:00:45.526Z,15.40
2023-01-03T12:03:36.155Z,4.65
2023-01-03T12:06:18.008Z,8.23
2023-01-03T12:09:10.394Z,9.60
2023-01-03T12:11:48.713Z,6.28
2023-01-03T12:14:23.076Z,3.20
2023-01-03T12:17:01.717Z,3.95
2023-01-03T12:19:37.427Z,3.55
2023-01-03T12:22:17.745Z,2.90
2023-01-03T12:24:52.456Z,3.33
2023-01-03T12:27:43.401Z,18.77
2023-01-03T12:31:06.020Z,4.85
2023-01-03T12:33:36.259Z,2.78
2023-01-03T12:36:25.948Z,2.70
2023-01-03T12:39:32.696Z,3.67
2023-01-03T12:42:20.059Z,2.47
2023-01-03T12:44:55.057Z,3.05
2023-01-03T12:47:28.818Z,3.30
2023-01-03T12:49:55.725Z,2.45
2023-01-03T12:52:25.099Z,3.47
2023-01-03T12:55:13.242Z,2.55
2023-01-03T12:58:08.479Z,2.88
2023-01-03T13:00:42.641Z,2.47
2023-01-03T13:03:18.842Z,4.53
2023-01-03T13:05:53.010Z,2.50
2023-01-03T13:08:31.256Z,3.25
2023-01-03T13:11:12.091Z,2.33
2023-01-03T13:13:55.649Z,33.78
2023-01-03T13:16:41.353Z,11.10
2023-01-03T13:19:23.873Z,3.80
2023-01-03T13:21:53.986Z,3.30
2023-01-03T13:24:42.757Z,3.45
2023-01-03T13:27:24.774Z,2.95
2023-01-03T13:29:58.570Z,2.80
2023-01-03T13:32:32.951Z,3.70
2023-01-03T13:35:03.254Z,5.22
2023-01-03T13:37:45.491Z,5.82
2023-01-03T13:40:39.243Z,4.32
2023-01-03T13:43:06.577Z,3.90
2023-01-03T13:45:33.226Z,10.15
2023-01-03T13:48:20.701Z,4.43
2023-01-03T13:51:03.968Z,7.35
2023-01-03T13:53:37.334Z,11.07
2023-01-03T13:56:16.305Z,3.92
2023-01-03T13:58:51.323Z,8.23
2023-01-03T14:01:44.159Z,6.90
2023-01-03T14:04:42.155Z,4.72
2023-01-03T14:07:34.603Z,6.05
2023-01-03T14:10:28.774Z,5.50
2023-01-03T14:13:35.806Z,5.15
2023-01-03T14:16:51.576Z,5.10
2023-01-03T14:19:32.311Z,6.18
2023-01-03T14:22:21.190Z,4.70
2023-01-03T14:24:57.364Z,4.28
2023-01-03T14:27:32.482Z,5.00
2023-01-03T14:30:00.294Z,4.47
2023-01-03T14:32:35.123Z,4.30
2023-01-03T14:35:03.457Z,4.15
2023-01-03T14:37:32.966Z,4.68
2023-01-03T14:40:01.898Z,3.90
2023-01-03T14:42:29.446Z,8.75
2023-01-03T14:44:57.349Z,11.13
2023-01-03T14:47:37.543Z,6.68
2023-01-03T14:50:06.580Z,5.15
2023-01-03T14:52:40.876Z,4.32
2023-01-03T14:55:15.622Z,5.00
2023-01-03T14:57:44.553Z,3.97
2023-01-03T15:00:32.127Z,3.67
2023-01-03T15:03:01.117Z,3.58
2023-01-03T15:05:38.356Z,3.75
2023-01-03T15:08:20.395Z,2.97
2023-01-03T15:10:59.544Z,4.65
2023-01-03T15:13:47.580Z,3.42
2023-01-03T15:16:30.957Z,3.08
2023-01-03T15:19:23.335Z,4.15
2023-01-03T15:21:51.381Z,3.25
2023-01-03T15:24:21.161Z,5.82
2023-01-03T15:26:53.392Z,3.67
2023-01-03T15:29:23.142Z,3.40
2023-01-03T15:31:54.755Z,3.95
2023-01-03T15:34:29.008Z,3.80
2023-01-03T15:37:03.558Z,4.63
2023-01-03T15:39:50.496Z,3.92
2023-01-03T15:42:46.750Z,14.02
2023-01-03T15:45:25.523Z,4.72
2023-01-03T15:47:56.148Z,8.77
2023-01-03T15:50:27.150Z,3.45
2023-01-03T15:52:54.022Z,7.07
2023-01-03T15:55:21.129Z,9.68
2023-01-03T15:57:53.803Z,6.20
2023-01-03T16:00:23.234Z,4.95
2023-01-03T16:02:50.722Z,3.88
2023-01-03T16:05:22.681Z,5.35
2023-01-03T16:07:50.954Z,11.35
2023-01-03T16:10:17.944Z,3.75
2023-01-03T16:12:45.079Z,3.88
2023-01-03T16:15:21.320Z,6.82
2023-01-03T16:17:50.479Z,7.63
2023-01-03T16:20:18.871Z,3.55
2023-01-03T16:22:59.827Z,3.38
2023-01-03T16:25:27.576Z,3.75
2023-01-03T16:27:54.610Z,2.72
2023-01-03T16:30:21.300Z,3.17
2023-01-03T16:32:48.226Z,3.88
2023-01-03T16:35:17.794Z,3.85
2023-01-03T16:37:44.713Z,3.20
2023-01-03T16:40:20.336Z,3.17
2023-01-03T16:42:47.596Z,10.13
2023-01-03T16:45:15.110Z,3.90
2023-01-03T16:47:43.655Z,3.83
2023-01-03T16:50:19.831Z,2.63
2023-01-03T16:52:55.623Z,4.78
2023-01-03T16:55:32.872Z,2.78
2023-01-03T16:57:59.920Z,3.05
2023-01-03T17:00:29.606Z,2.90
2023-01-03T17:02:59.935Z,4.72
2023-01-03T17:05:31.226Z,3.08
2023-01-03T17:08:12.409Z,3.30
2023-01-03T17:10:41.764Z,2.90
2023-01-03T17:13:27.315Z,3.25
2023-01-03T17:15:55.575Z,2.45
2023-01-03T17:18:24.355Z,3.05
2023-01-03T17:21:01.256Z,2.65
2023-01-03T17:23:32.301Z,3.00
2023-01-03T17:25:58.996Z,1.80
2023-01-03T17:28:26.201Z,2.88
2023-01-03T17:30:56.501Z,3.45
2023-01-03T17:33:30.214Z,2.45
2023-01-03T17:36:01.080Z,2.85
2023-01-03T17:38:29.565Z,2.67
2023-01-03T17:40:57.283Z,3.42
2023-01-03T17:43:25.127Z,2.67
2023-01-03T17:46:22.507Z,1.90
2023-01-03T17:49:09.323Z,3.33
2023-01-03T17:51:36.295Z,3.47
2023-01-03T17:54:04.076Z,4.53
2023-01-03T17:56:32.110Z,2.50
2023-01-03T17:58:59.097Z,2.05
2023-01-03T18:01:26.176Z,2.63
2023-01-03T18:03:53.271Z,2.08
2023-01-03T18:06:22.668Z,2.88
2023-01-03T18:08:51.480Z,2.08
2023-01-03T18:11:20.689Z,2.78
2023-01-03T18:13:48.851Z,2.55
2023-01-03T18:16:21.826Z,2.40
2023-01-03T18:18:49.695Z,4.40
2023-01-03T18:21:27.792Z,4.00
2023-01-03T18:24:01.210Z,3.45
2023-01-03T18:26:40.897Z,2.50
2023-01-03T18:31:38.190Z,3.45
2023-01-03T18:34:05.520Z,2.60
2023-01-03T18:36:40.991Z,4.07
2023-01-03T18:39:16.756Z,3.35
2023-01-03T18:41:43.973Z,3.35
2023-01-03T18:44:24.969Z,2.33
2023-01-03T18:46:52.190Z,2.55
2023-01-03T18:49:19.579Z,2.20
2023-01-03T18:51:49.525Z,2.30
2023-01-03T18:54:19.442Z,2.03
2023-01-03T18:59:26.149Z,1.92
2023-01-03T19:01:54.185Z,4.22
2023-01-03T19:04:21.363Z,9.23
2023-01-03T19:06:51.864Z,5.65
2023-01-03T19:09:24.735Z,19.17
2023-01-03T19:11:53.710Z,4.20
2023-01-03T19:14:20.918Z,4.90
2023-01-03T19:16:48.944Z,2.20
2023-01-03T19:19:16.896Z,2.15
2023-01-03T19:21:46.241Z,2.53
2023-01-03T19:24:23.679Z,3.53
2023-01-03T19:27:16.435Z,4.47
2023-01-03T19:29:44.108Z,3.63
2023-01-03T19:32:20.008Z,3.72
2023-01-03T19:34:47.171Z,5.15
2023-01-03T19:37:14.075Z,3.58
2023-01-03T19:39:41.320Z,10.55
2023-01-03T19:42:32.679Z,28.90
2023-01-03T19:45:00.892Z,13.98
2023-01-03T19:47:28.144Z,5.60
2023-01-03T19:49:55.517Z,29.60
2023-01-03T19:52:22.559Z,22.38
2023-01-03T19:54:50.448Z,7.28
2023-01-03T19:57:22.334Z,6.38
2023-01-03T19:59:53.395Z,3.85
2023-01-03T20:02:32.703Z,3.85
2023-01-03T20:05:00.254Z,2.85
2023-01-03T20:07:27.265Z,2.42
2023-01-03T20:09:54.079Z,2.45
2023-01-03T20:12:26.260Z,2.47
2023-01-03T20:14:58.732Z,3.80
2023-01-03T20:17:29.526Z,3.65
2023-01-03T20:19:56.641Z,3.15
2023-01-03T20:23:02.420Z,2.03
2023-01-03T20:25:23.023Z,2.05
2023-01-03T20:27:50.716Z,2.25
2023-01-03T20:30:19.778Z,2.70
2023-01-03T20:32:46.680Z,3.25
2023-01-03T20:36:07.072Z,2.20
2023-01-03T20:38:06.242Z,2.38
2023-01-03T20:40:33.142Z,2.50
2023-01-03T20:43:02.134Z,2.47
2023-01-03T20:45:30.876Z,3.35
2023-01-03T20:47:57.680Z,2.22
2023-01-03T20:50:26.791Z,3.08
2023-01-03T20:52:54.978Z,1.77
2023-01-03T20:55:24.207Z,2.20
2023-01-03T20:57:51.650Z,2.40
2023-01-03T21:00:31.227Z,1.92
2023-01-03T21:02:59.217Z,2.25
2023-01-03T21:05:26.929Z,1.88
2023-01-03T21:08:12.117Z,3.28
2023-01-03T21:10:42.636Z,1.80
2023-01-03T21:13:10.761Z,2.28
2023-01-03T21:15:38.553Z,2.17
2023-01-03T21:18:06.399Z,2.65
2023-01-03T21:20:33.777Z,2.03
2023-01-03T21:23:00.818Z,1.98
2023-01-03T21:25:33.155Z,1.85
2023-01-03T21:28:01.124Z,1.88
2023-01-03T21:30:32.203Z,2.38
2023-01-03T21:33:02.162Z,1.55
2023-01-03T21:35:28.895Z,2.85
2023-01-03T21:37:55.937Z,4.18
2023-01-03T21:40:31.968Z,3.22
2023-01-03T21:43:03.611Z,3.58
2023-01-03T21:45:31.842Z,2.65
2023-01-03T21:48:00.047Z,4.15
2023-01-03T21:50:28.289Z,1.92
2023-01-03T21:52:55.239Z,5.47
2023-01-03T21:55:22.984Z,2.00
2023-01-03T21:57:50.655Z,4.63
2023-01-03T22:00:17.882Z,2.53
2023-01-03T22:03:04.661Z,6.00
2023-01-03T22:05:31.881Z,3.72
2023-01-03T22:08:00.524Z,3.08
2023-01-03T22:10:28.425Z,2.30
2023-01-03T22:12:58.008Z,1.58
2023-01-03T22:15:25.154Z,1.92
2023-01-03T22:17:52.977Z,1.70
2023-01-03T22:20:23.651Z,2.15
2023-01-03T22:22:51.108Z,2.25
2023-01-03T22:25:20.350Z,2.10
2023-01-03T22:27:47.302Z,1.80
2023-01-03T22:30:17.014Z,2.20
2023-01-03T22:32:44.318Z,5.22
2023-01-03T22:35:13.063Z,2.47
2023-01-03T22:37:40.447Z,2.22
2023-01-03T22:40:10.895Z,3.00
2023-01-03T22:42:38.230Z,2.95
2023-01-03T22:45:06.528Z,2.35
2023-01-03T22:47:36.448Z,4.45
2023-01-03T22:52:31.567Z,3.50
2023-01-03T22:54:58.631Z,2.78
2023-01-03T22:57:25.336Z,2.20
2023-01-03T22:59:52.389Z,2.63
2023-01-03T23:02:24.584Z,2.28
2023-01-03T23:04:55.189Z,2.05
2023-01-03T23:07:22.136Z,2.10
2023-01-03T23:09:49.187Z,2.10
2023-01-03T23:12:35.064Z,2.80
2023-01-03T23:15:02.423Z,4.00
2023-01-03T23:17:47.595Z,2.45
2023-01-03T23:20:14.661Z,2.65
2023-01-03T23:22:43.598Z,2.15
2023-01-03T23:25:10.455Z,2.77
2023-01-03T23:27:37.487Z,2.90
2023-01-03T23:30:04.873Z,1.83
2023-01-03T23:32:32.826Z,1.48
2023-01-03T23:34:59.807Z,3.03
2023-01-03T23:37:27.324Z,2.45
2023-01-03T23:39:54.400Z,2.42
2023-01-03T23:42:21.321Z,2.55
2023-01-03T23:44:47.971Z,3.33
2023-01-03T23:47:15.060Z,2.17
2023-01-03T23:49:42.952Z,3.40
2023-01-03T23:52:09.991Z,3.63
2023-01-03T23:54:37.033Z,1.73
2023-01-03T23:57:04.919Z,4.63
2023-01-03T23:59:32.074Z,2.33
